sensor_id;sensor_type;location;lat;lon;timestamp;P1;durP1;ratioP1;P2;durP2;ratioP2
44606;SDS011;30315;46.072;14.474;2023-12-20T00:02:02;21.33;;;18.15;;
44606;SDS011;30315;46.072;14.474;2023-12-20T00:04:57;27.73;;;18.17;;
44606;SDS011;30315;46.072;14.474;2023-12-20T00:07:26;21.60;;;16.17;;
44606;SDS011;30315;46.072;14.474;2023-12-20T00:09:54;22.33;;;15.37;;
44606;SDS011;30315;46.072;14.474;2023-12-20T00:12:24;24.75;;;18.10;;
44606;SDS011;30315;46.072;14.474;2023-12-20T00:14:54;26.25;;;17.60;;
44606;SDS011;30315;46.072;14.474;2023-12-20T00:17:25;21.63;;;17.88;;
44606;SDS011;30315;46.072;14.474;2023-12-20T00:20:25;24.90;;;16.50;;
44606;SDS011;30315;46.072;14.474;2023-12-20T00:23:15;25.33;;;16.60;;
44606;SDS011;30315;46.072;14.474;2023-12-20T00:26:11;35.03;;;20.73;;
44606;SDS011;30315;46.072;14.474;2023-12-20T00:31:44;23.20;;;16.30;;
44606;SDS011;30315;46.072;14.474;2023-12-20T00:34:15;23.85;;;16.60;;
44606;SDS011;30315;46.072;14.474;2023-12-20T00:36:43;22.48;;;17.42;;
44606;SDS011;30315;46.072;14.474;2023-12-20T00:39:12;22.70;;;15.20;;
44606;SDS011;30315;46.072;14.474;2023-12-20T00:41:42;22.67;;;15.20;;
44606;SDS011;30315;46.072;14.474;2023-12-20T00:44:11;21.77;;;15.07;;
44606;SDS011;30315;46.072;14.474;2023-12-20T00:46:40;23.02;;;16.95;;
44606;SDS011;30315;46.072;14.474;2023-12-20T00:49:07;20.70;;;15.45;;
44606;SDS011;30315;46.072;14.474;2023-12-20T00:51:38;25.00;;;15.73;;
44606;SDS011;30315;46.072;14.474;2023-12-20T00:54:15;26.08;;;17.08;;
44606;SDS011;30315;46.072;14.474;2023-12-20T00:56:45;16.90;;;14.10;;
44606;SDS011;30315;46.072;14.474;2023-12-20T00:59:13;26.80;;;16.02;;
44606;SDS011;30315;46.072;14.474;2023-12-20T01:01:41;24.75;;;16.65;;
44606;SDS011;30315;46.072;14.474;2023-12-20T01:04:10;20.58;;;15.70;;
44606;SDS011;30315;46.072;14.474;2023-12-20T01:06:39;24.77;;;16.00;;
44606;SDS011;30315;46.072;14.474;2023-12-20T01:11:42;26.40;;;14.82;;
44606;SDS011;30315;46.072;14.474;2023-12-20T01:14:10;19.92;;;15.52;;
44606;SDS011;30315;46.072;14.474;2023-12-20T01:16:54;17.55;;;14.85;;
44606;SDS011;30315;46.072;14.474;2023-12-20T01:19:22;21.35;;;16.75;;
44606;SDS011;30315;46.072;14.474;2023-12-20T01:21:58;19.10;;;15.88;;
44606;SDS011;30315;46.072;14.474;2023-12-20T01:24:27;24.13;;;15.80;;
44606;SDS011;30315;46.072;14.474;2023-12-20T01:26:55;28.75;;;19.10;;
44606;SDS011;30315;46.072;14.474;2023-12-20T01:29:23;19.42;;;15.38;;
44606;SDS011;30315;46.072;14.474;2023-12-20T01:31:51;32.10;;;15.77;;
44606;SDS011;30315;46.072;14.474;2023-12-20T01:34:20;29.63;;;17.00;;
44606;SDS011;30315;46.072;14.474;2023-12-20T01:36:50;25.52;;;16.63;;
44606;SDS011;30315;46.072;14.474;2023-12-20T01:39:18;22.58;;;16.50;;
44606;SDS011;30315;46.072;14.474;2023-12-20T01:41:55;17.33;;;14.32;;
44606;SDS011;30315;46.072;14.474;2023-12-20T01:44:28;22.25;;;16.17;;
44606;SDS011;30315;46.072;14.474;2023-12-20T01:46:57;18.52;;;14.77;;
44606;SDS011;30315;46.072;14.474;2023-12-20T01:49:29;23.27;;;16.85;;
44606;SDS011;30315;46.072;14.474;2023-12-20T01:51:57;23.70;;;16.13;;
44606;SDS011;30315;46.072;14.474;2023-12-20T01:54:27;23.73;;;16.42;;
44606;SDS011;30315;46.072;14.474;2023-12-20T01:56:57;15.40;;;13.25;;
44606;SDS011;30315;46.072;14.474;2023-12-20T02:01:55;15.53;;;13.87;;
44606;SDS011;30315;46.072;14.474;2023-12-20T02:04:24;15.80;;;14.20;;
44606;SDS011;30315;46.072;14.474;2023-12-20T02:06:54;20.50;;;14.50;;
44606;SDS011;30315;46.072;14.474;2023-12-20T02:09:30;19.67;;;13.63;;
44606;SDS011;30315;46.072;14.474;2023-12-20T02:12:02;19.45;;;14.23;;
44606;SDS011;30315;46.072;14.474;2023-12-20T02:14:32;18.48;;;14.13;;
44606;SDS011;30315;46.072;14.474;2023-12-20T02:16:59;15.57;;;12.32;;
44606;SDS011;30315;46.072;14.474;2023-12-20T02:19:31;23.33;;;13.10;;
44606;SDS011;30315;46.072;14.474;2023-12-20T02:22:32;18.35;;;13.85;;
44606;SDS011;30315;46.072;14.474;2023-12-20T02:31:20;26.73;;;15.07;;
44606;SDS011;30315;46.072;14.474;2023-12-20T02:33:49;15.48;;;12.40;;
44606;SDS011;30315;46.072;14.474;2023-12-20T02:36:33;17.00;;;13.70;;
44606;SDS011;30315;46.072;14.474;2023-12-20T02:39:02;20.60;;;13.95;;
44606;SDS011;30315;46.072;14.474;2023-12-20T03:13:56;13.57;;;12.05;;
44606;SDS011;30315;46.072;14.474;2023-12-20T03:16:27;18.38;;;11.05;;
44606;SDS011;30315;46.072;14.474;2023-12-20T03:27:56;13.02;;;10.68;;
44606;SDS011;30315;46.072;14.474;2023-12-20T03:30:23;18.35;;;11.77;;
44606;SDS011;30315;46.072;14.474;2023-12-20T03:33:06;18.63;;;12.45;;
44606;SDS011;30315;46.072;14.474;2023-12-20T03:53:30;23.55;;;10.05;;
44606;SDS011;30315;46.072;14.474;2023-12-20T03:59:36;12.73;;;11.43;;
44606;SDS011;30315;46.072;14.474;2023-12-20T04:02:05;12.70;;;11.50;;
44606;SDS011;30315;46.072;14.474;2023-12-20T04:04:34;13.48;;;11.90;;
44606;SDS011;30315;46.072;14.474;2023-12-20T04:07:10;14.25;;;10.82;;
44606;SDS011;30315;46.072;14.474;2023-12-20T04:09:42;12.05;;;9.90;;
44606;SDS011;30315;46.072;14.474;2023-12-20T04:12:12;15.20;;;11.73;;
44606;SDS011;30315;46.072;14.474;2023-12-20T04:14:47;20.15;;;13.77;;
44606;SDS011;30315;46.072;14.474;2023-12-20T04:17:16;16.30;;;11.95;;
44606;SDS011;30315;46.072;14.474;2023-12-20T04:19:44;19.75;;;11.35;;
44606;SDS011;30315;46.072;14.474;2023-12-20T04:22:15;17.70;;;11.32;;
44606;SDS011;30315;46.072;14.474;2023-12-20T04:24:51;18.67;;;12.88;;
44606;SDS011;30315;46.072;14.474;2023-12-20T04:27:51;11.13;;;10.07;;
44606;SDS011;30315;46.072;14.474;2023-12-20T04:45:00;14.07;;;9.43;;
44606;SDS011;30315;46.072;14.474;2023-12-20T04:47:26;12.60;;;11.40;;
44606;SDS011;30315;46.072;14.474;2023-12-20T04:49:52;17.92;;;12.85;;
44606;SDS011;30315;46.072;14.474;2023-12-20T05:07:11;26.60;;;12.93;;
44606;SDS011;30315;46.072;14.474;2023-12-20T05:10:23;16.40;;;13.32;;
44606;SDS011;30315;46.072;14.474;2023-12-20T06:12:07;12.95;;;11.65;;
44606;SDS011;30315;46.072;14.474;2023-12-20T06:14:37;20.00;;;11.95;;
44606;SDS011;30315;46.072;14.474;2023-12-20T06:17:23;12.45;;;11.25;;
44606;SDS011;30315;46.072;14.474;2023-12-20T06:19:55;15.77;;;13.25;;
44606;SDS011;30315;46.072;14.474;2023-12-20T06:31:40;18.20;;;11.52;;
44606;SDS011;30315;46.072;14.474;2023-12-20T06:34:08;19.48;;;12.27;;
44606;SDS011;30315;46.072;14.474;2023-12-20T06:36:37;18.48;;;13.32;;
44606;SDS011;30315;46.072;14.474;2023-12-20T06:39:04;17.55;;;13.38;;
44606;SDS011;30315;46.072;14.474;2023-12-20T06:41:35;15.98;;;12.75;;
44606;SDS011;30315;46.072;14.474;2023-12-20T06:48:11;17.58;;;13.38;;
44606;SDS011;30315;46.072;14.474;2023-12-20T07:36:50;25.70;;;14.45;;
44606;SDS011;30315;46.072;14.474;2023-12-20T09:44:11;31.65;;;17.65;;
44606;SDS011;30315;46.072;14.474;2023-12-20T10:09:16;25.45;;;17.33;;
44606;SDS011;30315;46.072;14.474;2023-12-20T10:16:25;29.65;;;17.98;;
44606;SDS011;30315;46.072;14.474;2023-12-20T12:31:56;25.17;;;15.98;;
44606;SDS011;30315;46.072;14.474;2023-12-20T12:34:32;27.33;;;18.90;;
44606;SDS011;30315;46.072;14.474;2023-12-20T12:37:12;25.48;;;17.92;;
44606;SDS011;30315;46.072;14.474;2023-12-20T12:39:50;17.30;;;15.40;;
44606;SDS011;30315;46.072;14.474;2023-12-20T12:46:35;24.67;;;14.38;;
44606;SDS011;30315;46.072;14.474;2023-12-20T12:49:24;26.70;;;17.15;;
44606;SDS011;30315;46.072;14.474;2023-12-20T12:52:31;16.80;;;14.07;;
44606;SDS011;30315;46.072;14.474;2023-12-20T12:55:54;24.63;;;16.63;;
44606;SDS011;30315;46.072;14.474;2023-12-20T12:59:21;17.45;;;14.85;;
44606;SDS011;30315;46.072;14.474;2023-12-20T13:06:22;21.13;;;15.68;;
44606;SDS011;30315;46.072;14.474;2023-12-20T13:12:41;31.00;;;18.30;;
44606;SDS011;30315;46.072;14.474;2023-12-20T13:15:11;18.00;;;14.30;;
44606;SDS011;30315;46.072;14.474;2023-12-20T13:18:07;16.80;;;14.98;;
44606;SDS011;30315;46.072;14.474;2023-12-20T13:21:11;20.83;;;13.90;;
44606;SDS011;30315;46.072;14.474;2023-12-20T13:24:07;16.52;;;12.85;;
44606;SDS011;30315;46.072;14.474;2023-12-20T13:26:58;17.25;;;13.82;;
44606;SDS011;30315;46.072;14.474;2023-12-20T13:29:35;18.48;;;13.07;;
44606;SDS011;30315;46.072;14.474;2023-12-20T13:32:06;16.05;;;12.75;;
44606;SDS011;30315;46.072;14.474;2023-12-20T13:34:45;28.98;;;14.90;;
44606;SDS011;30315;46.072;14.474;2023-12-20T13:37:35;19.30;;;12.68;;
44606;SDS011;30315;46.072;14.474;2023-12-20T13:40:11;18.02;;;12.48;;
44606;SDS011;30315;46.072;14.474;2023-12-20T13:49:17;19.75;;;13.32;;
44606;SDS011;30315;46.072;14.474;2023-12-20T13:51:50;20.67;;;13.30;;
44606;SDS011;30315;46.072;14.474;2023-12-20T13:55:06;14.27;;;12.20;;
44606;SDS011;30315;46.072;14.474;2023-12-20T13:58:14;21.00;;;14.38;;
44606;SDS011;30315;46.072;14.474;2023-12-20T14:05:19;21.85;;;13.77;;
44606;SDS011;30315;46.072;14.474;2023-12-20T14:07:54;17.90;;;13.35;;
44606;SDS011;30315;46.072;14.474;2023-12-20T14:10:28;17.98;;;14.20;;
44606;SDS011;30315;46.072;14.474;2023-12-20T14:13:20;15.32;;;13.73;;
44606;SDS011;30315;46.072;14.474;2023-12-20T14:15:48;14.98;;;11.93;;
44606;SDS011;30315;46.072;14.474;2023-12-20T14:18:20;18.75;;;11.50;;
44606;SDS011;30315;46.072;14.474;2023-12-20T14:20:59;13.65;;;11.98;;
44606;SDS011;30315;46.072;14.474;2023-12-20T14:46:54;12.40;;;10.93;;
44606;SDS011;30315;46.072;14.474;2023-12-20T14:50:03;16.95;;;10.63;;
44606;SDS011;30315;46.072;14.474;2023-12-20T14:57:07;12.55;;;10.95;;
44606;SDS011;30315;46.072;14.474;2023-12-20T15:00:02;14.82;;;11.43;;
44606;SDS011;30315;46.072;14.474;2023-12-20T15:03:24;14.32;;;11.27;;
44606;SDS011;30315;46.072;14.474;2023-12-20T15:06:40;19.85;;;11.60;;
